createdAt,value
2018-04-18T00:08:37.605Z,11.6
2018-04-18T00:22:59.025Z,11.4
2018-04-18T00:34:48.777Z,11.2
2018-04-18T00:49:46.384Z,11.0
2018-04-18T01:02:24.261Z,10.7
2018-04-18T01:14:28.573Z,10.5
2018-04-18T01:25:20.564Z,10.5
2018-04-18T01:54:06.259Z,10.0
2018-04-18T02:21:25.063Z,9.5
2018-04-18T02:32:42.125Z,9.3
2018-04-18T02:42:56.665Z,9.3
2018-04-18T02:54:10.314Z,9.1
2018-04-18T03:22:37.277Z,8.9
2018-04-18T03:35:40.665Z,8.7
2018-04-18T04:12:52.577Z,8.4
2018-04-18T04:39:56.879Z,8.1
2018-04-18T04:52:54.401Z,7.8
2018-04-18T05:03:39.873Z,7.8
2018-04-18T05:13:51.367Z,7.7
2018-04-18T05:37:46.940Z,7.7
2018-04-18T05:50:14.634Z,7.9
2018-04-18T06:01:41.820Z,7.9
2018-04-18T06:15:38.084Z,8.3
2018-04-18T06:39:25.751Z,8.9
2018-04-18T07:05:56.204Z,9.3
2018-04-18T07:16:10.699Z,10.1
2018-04-18T07:42:18.603Z,13.7
2018-04-18T07:57:38.046Z,17.6
2018-04-18T08:08:07.111Z,17.6
2018-04-18T08:31:26.353Z,23.0
2018-04-18T08:41:40.999Z,25.2
2018-04-18T08:53:12.309Z,26.9
2018-04-18T09:13:42.888Z,30.0
2018-04-18T09:24:16.542Z,31.0
2018-04-18T09:44:46.838Z,32.6
2018-04-18T09:55:01.007Z,32.8
2018-04-18T10:05:15.664Z,32.4
2018-04-18T10:25:43.643Z,34.7
2018-04-18T10:35:58.028Z,35.3
2018-04-18T10:46:12.139Z,35.7
2018-04-18T10:56:26.775Z,35.5
2018-04-18T11:06:41.114Z,36.9
2018-04-18T11:16:54.791Z,37.7
2018-04-18T11:27:09.204Z,38.3
2018-04-18T11:37:25.421Z,38.8
2018-04-18T11:47:40.736Z,39.1
2018-04-18T11:57:53.656Z,39.1
2018-04-18T12:08:09.054Z,39.0
2018-04-18T12:18:23.827Z,38.9
2018-04-18T12:28:38.383Z,38.6
2018-04-18T12:38:50.460Z,38.4
2018-04-18T12:49:02.274Z,38.2
2018-04-18T12:59:14.529Z,38.0
2018-04-18T13:09:26.391Z,37.9
2018-04-18T13:19:40.454Z,37.8
2018-04-18T13:29:54.791Z,37.8
2018-04-18T13:40:06.971Z,37.7
2018-04-18T13:54:34.522Z,37.8
2018-04-18T14:04:48.120Z,37.8
2018-04-18T14:15:33.378Z,37.8
2018-04-18T14:26:21.915Z,37.9
2018-04-18T14:36:34.430Z,37.9
2018-04-18T14:46:46.272Z,37.8
2018-04-18T14:57:01.222Z,37.8
2018-04-18T15:07:12.935Z,37.7
2018-04-18T15:17:25.556Z,37.5
2018-04-18T15:27:39.612Z,37.3
2018-04-18T15:37:53.630Z,37.0
2018-04-18T15:48:08.348Z,36.6
2018-04-18T15:58:53.591Z,35.4
2018-04-18T16:09:07.139Z,35.4
2018-04-18T16:19:55.438Z,33.8
2018-04-18T16:30:43.739Z,33.0
2018-04-18T16:41:00.220Z,33.0
2018-04-18T16:51:16.561Z,32.2
2018-04-18T17:01:30.908Z,31.4
2018-04-18T17:11:43.265Z,30.7
2018-04-18T17:21:56.269Z,30.1
2018-04-18T17:45:00.944Z,28.2
2018-04-18T17:56:44.210Z,27.5
2018-04-18T19:09:07.035Z,23.3
2018-04-18T19:20:30.534Z,22.6
2018-04-18T19:31:15.817Z,22.0
2018-04-18T19:42:34.520Z,22.0
2018-04-18T20:11:36.040Z,20.1
2018-04-18T20:25:48.039Z,19.6
2018-04-18T20:36:32.742Z,19.2
2018-04-18T20:46:44.744Z,19.2
2018-04-18T20:58:06.729Z,18.3
2018-04-18T21:08:55.256Z,18.0
2018-04-18T21:19:10.089Z,18.0
2018-04-18T21:29:24.457Z,17.7
2018-04-18T21:39:38.376Z,17.4
2018-04-18T21:49:54.667Z,17.1
2018-04-18T22:00:09.176Z,16.8
2018-04-18T22:10:22.642Z,16.6
2018-04-18T22:20:36.224Z,16.4
2018-04-18T22:31:21.426Z,16.1
2018-04-18T22:41:33.295Z,16.1
2018-04-18T22:52:18.629Z,15.7
2018-04-18T23:02:32.794Z,15.7
2018-04-18T23:12:46.568Z,15.6
2018-04-18T23:23:00.508Z,15.4
2018-04-18T23:33:15.022Z,15.2
2018-04-18T23:43:29.017Z,15.0
2018-04-18T23:54:13.426Z,14.7
